This is the latest recevied weather packets stored in our database for station/object N3DOU-1. If no packets are shown the sender has not sent any weather packets the latest 10 day(s).
| Time | Temp. | Humidity | Pressure | Rain* | Wind** | Luminosity | Snow |
|---|---|---|---|---|---|---|---|
| 1777401685 | 13.89° C | 76% | 1019.7 hPa | 0 mm | - | - | - |
| 1777400785 | 13.89° C | 78% | 1019.8 hPa | 0 mm | - | - | - |
| 1777399885 | 13.33° C | 83% | 1019.7 hPa | 0 mm | - | - | - |
| 1777398984 | 12.78° C | 82% | 1020 hPa | 0 mm | - | - | - |
| 1777398083 | 13.33° C | 81% | 1020.5 hPa | 0 mm | - | - | - |
| 1777397183 | 13.33° C | 81% | 1020.5 hPa | 0 mm | - | - | - |
| 1777396285 | 13.33° C | 79% | 1020.6 hPa | 0 mm | - | - | - |
| 1777395384 | 13.89° C | 76% | 1020.7 hPa | 0 mm | - | - | - |
| 1777393585 | 14.44° C | 71% | 1021.3 hPa | 0 mm | - | - | - |
| 1777392685 | 15° C | 70% | 1021.9 hPa | 0 mm | - | - | - |
| 1777391784 | 15.56° C | 66% | 1022 hPa | 0 mm | - | - | - |
| 1777390885 | 16.11° C | 66% | 1021.4 hPa | 0 mm | - | - | - |
| 1777389985 | 16.11° C | 62% | 1021.8 hPa | 0 mm | - | - | - |
| 1777389085 | 16.11° C | 63% | 1021.6 hPa | 0 mm | - | - | - |
| 1777388184 | 16.11° C | 62% | 1021.8 hPa | 0 mm | - | - | - |
| 1777387285 | 16.11° C | 64% | 1021.8 hPa | 0 mm | - | - | - |
| 1777386384 | 15.56° C | 65% | 1021.4 hPa | 0 mm | - | - | - |
| 1777385489 | 15.56° C | 65% | 1021.2 hPa | 0 mm | - | - | - |
| 1777384585 | 15.56° C | 68% | 1021.5 hPa | 0 mm | - | - | - |
| 1777383684 | 15° C | 70% | 1021.4 hPa | 0 mm | - | - | - |
| 1777382786 | 14.44° C | 70% | 1021.6 hPa | 0 mm | - | - | - |
| 1777381885 | 13.89° C | 74% | 1021.6 hPa | 0 mm | - | - | - |
| 1777380983 | 12.78° C | 77% | 1021.9 hPa | 0 mm | - | - | - |
| 1777379186 | 10.56° C | 80% | 1022.1 hPa | 0 mm | - | - | - |
| 1777377385 | 8.89° C | 83% | 1022 hPa | 0 mm | - | - | - |
* Rain latest hour (hover to see other rain measurements)
** Current wind speed in m/s (hover to see current wind gust speed)